Adair, Illinois
Current Conditions -  °F | °C
As of 5:15 AM on Friday 24 Oct 2014 (Local Time) from KMQB Reporting Station
Moderate Fog Moderate Fog  
Wind Chill: 49°   Ceiling: 100
Heat Index: 49°   Visibility: 0.25mi
Dew Point: 49°   Wind: 3mph
Humidity: 100%   Direction: 270°W
Pressure: 30.08"   Gusts: NA
Location:  40.42°N, 90.5°W
Report Text: KMQB 241015Z AUTO 27003KT 1/4SM FG OVC001 10/10 A3008 RMK AO2 T00960096
Loading
Personal Weather Stations






























Interactive Weather Map
Tropical Storm Tracking
New forecast layout! Learn more

10-Day Weather Forecast

Advertisements
Track Severe Weather on mobile